createdAt,value
2023-05-12T00:00:27.790Z,151814.75
2023-05-12T00:02:56.748Z,151831.63
2023-05-12T00:05:24.962Z,151822.53
2023-05-12T00:07:52.968Z,151830.31
2023-05-12T00:10:22.404Z,151835.53
2023-05-12T00:12:50.776Z,151814.75
2023-05-12T00:15:20.334Z,151803.09
2023-05-12T00:17:48.676Z,151835.53
2023-05-12T00:20:18.053Z,151829.03
2023-05-12T00:22:48.235Z,151847.19
2023-05-12T00:25:16.380Z,151832.94
2023-05-12T00:27:45.800Z,151840.72
2023-05-12T00:30:14.216Z,151845.91
2023-05-12T00:32:43.580Z,151847.19
2023-05-12T00:35:11.752Z,151848.50
2023-05-12T00:37:39.753Z,151858.81
2023-05-12T00:40:10.381Z,151870.50
2023-05-12T00:42:38.266Z,151849.78
2023-05-12T00:45:11.851Z,151829.03
2023-05-12T00:47:40.553Z,151853.69
2023-05-12T00:50:10.238Z,151848.50
2023-05-12T00:52:38.139Z,151830.31
2023-05-12T00:55:07.695Z,151861.41
2023-05-12T00:57:35.710Z,151861.41
2023-05-12T01:00:05.174Z,151856.22
2023-05-12T01:02:34.972Z,151875.69
2023-05-12T01:05:03.640Z,151867.91
2023-05-12T01:07:34.198Z,151869.22
2023-05-12T01:10:02.214Z,151871.81
2023-05-12T01:12:32.546Z,151878.28
2023-05-12T01:15:01.125Z,151910.69
2023-05-12T01:17:33.310Z,151900.34
2023-05-12T01:20:04.667Z,151887.38
2023-05-12T01:22:34.077Z,151895.16
2023-05-12T01:25:04.770Z,151895.16
2023-05-12T01:27:35.622Z,151887.38
2023-05-12T01:30:07.158Z,151896.47
2023-05-12T01:32:35.863Z,151915.88
2023-05-12T01:35:03.822Z,151924.97
2023-05-12T01:37:31.874Z,151917.19
2023-05-12T01:40:00.795Z,151930.16
2023-05-12T01:42:29.843Z,151923.66
2023-05-12T01:44:59.151Z,151932.75
2023-05-12T01:47:27.111Z,151921.06
2023-05-12T01:49:54.984Z,151930.16
2023-05-12T01:52:23.248Z,151931.44
2023-05-12T01:54:51.445Z,151931.44
2023-05-12T01:57:19.388Z,151947.03
2023-05-12T01:59:47.378Z,151936.63
2023-05-12T02:02:16.717Z,151950.91
2023-05-12T02:04:44.722Z,151941.84
2023-05-12T02:07:12.634Z,151945.72
2023-05-12T02:09:40.649Z,151950.91
2023-05-12T02:12:10.068Z,151943.13
2023-05-12T02:14:38.023Z,151956.13
2023-05-12T02:17:06.022Z,151954.81
2023-05-12T02:19:35.456Z,151952.22
2023-05-12T02:22:03.622Z,151939.25
2023-05-12T02:24:31.820Z,151987.22
2023-05-12T02:26:59.911Z,151949.63
2023-05-12T02:29:27.895Z,151985.91
2023-05-12T02:31:56.065Z,151978.13
2023-05-12T02:34:24.068Z,152004.09
2023-05-12T02:36:55.982Z,152019.66
2023-05-12T02:39:23.927Z,152015.78
2023-05-12T02:41:51.990Z,152015.78
2023-05-12T02:44:22.385Z,152000.19
2023-05-12T02:46:50.373Z,152019.66
2023-05-12T02:49:18.454Z,151987.22
2023-05-12T02:51:46.700Z,152009.28
2023-05-12T02:54:16.341Z,151996.31
2023-05-12T02:56:44.309Z,151992.41
2023-05-12T02:59:12.386Z,151998.91
2023-05-12T03:01:40.526Z,151992.41
2023-05-12T03:04:08.763Z,151982.03
2023-05-12T03:06:36.810Z,151967.75
2023-05-12T03:09:05.238Z,151993.72
2023-05-12T03:11:34.824Z,151997.59
2023-05-12T03:14:03.825Z,151996.31
2023-05-12T03:16:32.930Z,152001.50
2023-05-12T03:19:00.827Z,151988.50
2023-05-12T03:21:29.307Z,151988.50
2023-05-12T03:23:57.871Z,151998.91
2023-05-12T03:26:25.921Z,151988.50
2023-05-12T03:28:57.756Z,152002.78
2023-05-12T03:31:26.130Z,151998.91
2023-05-12T03:33:54.176Z,152004.09
2023-05-12T03:36:22.498Z,151993.72
2023-05-12T03:38:51.088Z,151996.31
2023-05-12T03:41:22.095Z,151996.31
2023-05-12T03:43:51.201Z,152001.50
2023-05-12T03:46:20.860Z,151996.31
2023-05-12T03:48:49.284Z,152008.00
2023-05-12T03:51:18.409Z,152006.69
2023-05-12T03:53:47.801Z,151993.72
2023-05-12T03:56:17.304Z,151992.41
2023-05-12T03:58:49.963Z,151988.50
2023-05-12T04:01:17.914Z,152009.28
2023-05-12T04:03:47.531Z,152008.00
2023-05-12T04:06:15.815Z,152014.47
2023-05-12T04:08:43.696Z,152019.66
2023-05-12T04:11:11.565Z,152022.22
2023-05-12T04:13:39.478Z,152041.75
2023-05-12T04:16:22.906Z,152037.81
2023-05-12T04:19:01.038Z,152039.16
2023-05-12T04:21:43.237Z,152037.81
2023-05-12T04:24:13.261Z,152045.63
2023-05-12T04:26:48.122Z,152044.34
2023-05-12T04:29:15.960Z,152053.44
2023-05-12T04:31:43.897Z,152054.72
2023-05-12T04:34:14.352Z,152061.22
2023-05-12T04:36:45.502Z,152050.84
2023-05-12T04:39:13.995Z,152054.72
2023-05-12T04:41:42.751Z,152071.59
2023-05-12T04:44:10.721Z,152080.66
2023-05-12T04:46:41.515Z,152065.13
2023-05-12T04:49:09.595Z,152061.22
2023-05-12T04:51:42.411Z,152071.59
2023-05-12T04:54:10.834Z,152079.34
2023-05-12T04:56:39.854Z,152118.31
2023-05-12T04:59:07.784Z,152123.50
2023-05-12T05:01:37.811Z,152102.72
2023-05-12T05:04:06.262Z,152089.75
2023-05-12T05:06:34.537Z,152092.34
2023-05-12T05:09:04.022Z,152102.72
2023-05-12T05:11:32.114Z,152131.28
2023-05-12T05:14:00.239Z,152157.22
2023-05-12T05:16:28.223Z,152131.28
2023-05-12T05:18:59.000Z,152141.63
2023-05-12T05:21:27.023Z,152136.44
2023-05-12T05:23:55.030Z,152167.59
2023-05-12T05:26:25.091Z,152174.09
2023-05-12T05:28:55.087Z,152193.53
2023-05-12T05:31:23.353Z,152166.31
2023-05-12T05:33:51.247Z,152154.63
2023-05-12T05:36:19.344Z,152170.22
2023-05-12T05:38:47.358Z,152184.50
2023-05-12T05:41:16.271Z,152189.63
2023-05-12T05:43:45.611Z,152194.84
2023-05-12T05:46:14.707Z,152197.44
2023-05-12T05:48:42.824Z,152213.03
2023-05-12T05:51:11.542Z,152236.41
2023-05-12T05:53:39.563Z,152226.00
2023-05-12T05:56:07.927Z,152228.63
2023-05-12T05:58:35.834Z,152229.91
2023-05-12T06:01:05.793Z,152261.03
2023-05-12T06:03:34.001Z,152233.81
2023-05-12T06:06:02.188Z,152268.84
2023-05-12T06:08:30.252Z,152268.84
2023-05-12T06:10:59.142Z,152267.53
2023-05-12T06:13:27.168Z,152261.03
2023-05-12T06:15:55.269Z,152245.44
2023-05-12T06:18:25.042Z,152279.22
2023-05-12T06:20:55.093Z,152306.47
2023-05-12T06:23:23.201Z,152320.75
2023-05-12T06:25:51.199Z,152297.44
2023-05-12T06:28:19.303Z,152262.34
2023-05-12T06:30:47.413Z,152251.94
2023-05-12T06:33:15.523Z,152283.13
2023-05-12T06:35:44.984Z,152266.25
2023-05-12T06:38:13.260Z,152297.44
2023-05-12T06:40:41.289Z,152299.97
2023-05-12T06:43:11.560Z,152287.03
2023-05-12T06:45:39.594Z,152307.78
2023-05-12T06:48:09.489Z,152316.88
2023-05-12T06:50:38.013Z,152305.16
2023-05-12T06:53:08.359Z,152315.56
2023-05-12T06:55:40.382Z,152271.44
2023-05-12T06:58:08.962Z,152277.94
2023-05-12T07:00:36.855Z,152307.78
2023-05-12T07:03:05.367Z,152274.03
2023-05-12T07:05:33.708Z,152294.81
2023-05-12T07:08:02.184Z,152244.16
2023-05-12T07:10:31.889Z,152235.09
2023-05-12T07:13:00.861Z,152268.84
2023-05-12T07:15:30.078Z,152263.63
2023-05-12T07:18:01.026Z,152253.25
2023-05-12T07:20:29.130Z,152279.22
2023-05-12T07:22:57.119Z,152301.28
2023-05-12T07:25:25.424Z,152301.28
2023-05-12T07:27:54.809Z,152310.38
2023-05-12T07:30:22.993Z,152338.97
2023-05-12T07:32:51.087Z,152392.19
2023-05-12T07:35:19.385Z,152414.28
2023-05-12T07:37:47.593Z,152411.69
2023-05-12T07:40:15.756Z,152451.97
2023-05-12T07:42:43.745Z,152439.00
2023-05-12T07:45:14.245Z,152507.84
2023-05-12T07:47:42.633Z,152554.59
2023-05-12T07:50:11.119Z,152633.84
2023-05-12T07:52:49.299Z,152737.91
2023-05-12T07:55:18.062Z,152823.69
2023-05-12T07:57:46.204Z,152965.44
2023-05-12T08:00:16.730Z,152931.66
2023-05-12T08:02:45.916Z,152975.88
2023-05-12T08:05:14.640Z,152909.50
2023-05-12T08:07:46.356Z,153029.25
2023-05-12T08:10:30.020Z,152995.41
2023-05-12T08:15:55.985Z,153106.03
2023-05-12T08:18:34.371Z,153244.00
2023-05-12T08:21:12.147Z,153326.09
2023-05-12T08:23:42.384Z,153490.22
2023-05-12T08:26:11.669Z,153466.75
2023-05-12T08:28:44.402Z,153409.44
2023-05-12T08:31:18.769Z,153494.16
2023-05-12T08:33:51.872Z,153419.88
2023-05-12T08:36:23.578Z,153546.31
2023-05-12T08:38:53.620Z,153490.22
2023-05-12T08:41:33.588Z,153483.72
2023-05-12T08:44:03.380Z,153603.66
2023-05-12T08:46:43.319Z,153521.47
2023-05-12T08:52:01.053Z,153580.16
2023-05-12T08:54:32.537Z,153693.56
2023-05-12T08:57:10.304Z,153901.00
2023-05-12T08:59:45.856Z,153967.50
2023-05-12T09:02:22.978Z,153880.13
2023-05-12T09:04:55.562Z,153848.84
2023-05-12T09:07:36.607Z,153929.69
2023-05-12T09:10:29.885Z,154065.44
2023-05-12T09:13:05.808Z,154125.47
2023-05-12T09:15:38.461Z,154162.00
2023-05-12T09:18:08.027Z,154141.09
2023-05-12T09:20:36.309Z,154250.81
2023-05-12T09:23:16.982Z,154344.88
2023-05-12T09:25:47.028Z,154394.50
2023-05-12T09:28:16.758Z,154337.03
2023-05-12T09:30:44.938Z,154235.16
2023-05-12T09:33:15.825Z,154459.84
2023-05-12T09:35:48.313Z,154386.66
2023-05-12T09:38:17.509Z,154406.28
2023-05-12T09:40:47.248Z,154616.69
2023-05-12T09:43:17.463Z,154831.16
2023-05-12T09:45:47.644Z,154595.75
2023-05-12T09:48:17.511Z,154836.38
2023-05-12T09:50:48.405Z,154962.00
2023-05-12T09:53:19.289Z,154535.63
2023-05-12T09:55:49.072Z,154601.00
2023-05-12T09:58:18.914Z,154753.97
2023-05-12T10:03:23.816Z,154578.75
2023-05-12T10:05:59.137Z,154798.47
2023-05-12T10:08:33.499Z,155103.34
2023-05-12T10:11:03.798Z,155061.50
2023-05-12T10:13:33.631Z,155535.56
2023-05-12T10:16:02.695Z,155400.63
2023-05-12T10:18:34.514Z,155411.13
2023-05-12T10:21:03.553Z,155504.16
2023-05-12T10:23:32.218Z,155284.06
2023-05-12T10:26:02.315Z,155142.59
2023-05-12T10:28:30.969Z,155315.47
2023-05-12T10:31:00.807Z,155462.25
2023-05-12T10:33:28.966Z,155580.16
2023-05-12T10:35:58.965Z,155682.44
2023-05-12T10:38:27.100Z,155506.78
2023-05-12T10:40:58.231Z,155453.06
2023-05-12T10:43:36.709Z,155706.00
2023-05-12T10:46:09.430Z,155429.47
2023-05-12T10:48:39.086Z,155420.25
2023-05-12T10:51:12.408Z,155627.38
2023-05-12T10:53:50.038Z,155716.50
2023-05-12T10:56:26.143Z,155442.56
2023-05-12T10:59:14.093Z,155090.25
2023-05-12T11:01:48.179Z,154739.63
2023-05-12T11:04:20.400Z,154929.28
2023-05-12T11:06:59.862Z,155027.41
2023-05-12T11:09:29.555Z,155048.34
2023-05-12T11:11:58.593Z,155291.94
2023-05-12T11:14:26.800Z,155412.41
2023-05-12T11:16:54.845Z,155645.69
2023-05-12T11:19:22.796Z,155574.91
2023-05-12T11:21:52.850Z,155409.81
2023-05-12T11:24:23.390Z,155299.78
2023-05-12T11:26:52.338Z,155601.09
2023-05-12T11:29:20.660Z,155723.06
2023-05-12T11:31:49.840Z,155862.09
2023-05-12T11:34:23.532Z,155609.03
2023-05-12T11:36:54.763Z,155612.94
2023-05-12T11:39:24.010Z,155530.31
2023-05-12T11:41:59.301Z,155509.41
2023-05-12T11:44:33.853Z,155526.44
2023-05-12T11:47:03.400Z,155316.78
2023-05-12T11:49:32.703Z,155472.69
2023-05-12T11:52:05.548Z,155589.28
2023-05-12T11:54:33.468Z,155782.09
2023-05-12T11:57:01.576Z,155963.13
2023-05-12T11:59:30.924Z,156091.66
2023-05-12T12:01:59.357Z,156040.47
2023-05-12T12:04:40.454Z,155978.81
2023-05-12T12:07:10.853Z,156104.78
2023-05-12T12:09:41.635Z,155839.78
2023-05-12T12:12:11.831Z,155923.69
2023-05-12T12:14:41.524Z,156073.31
2023-05-12T12:17:09.727Z,156286.00
2023-05-12T12:19:38.882Z,155827.97
2023-05-12T12:22:14.264Z,155968.38
2023-05-12T12:24:43.231Z,155808.28
2023-05-12T12:27:11.159Z,155430.78
2023-05-12T12:29:40.006Z,155717.78
2023-05-12T12:32:09.110Z,155816.16
2023-05-12T12:34:37.562Z,156153.38
2023-05-12T12:37:06.540Z,156263.63
2023-05-12T12:39:35.930Z,156012.97
2023-05-12T12:42:04.765Z,156153.38
2023-05-12T12:44:32.989Z,156349.03
2023-05-12T12:47:00.892Z,155851.59
2023-05-12T12:49:29.045Z,155871.22
2023-05-12T12:51:57.183Z,156328.00
2023-05-12T12:54:27.163Z,156010.34
2023-05-12T12:56:58.772Z,155942.06
2023-05-12T12:59:27.072Z,156232.13
2023-05-12T13:01:54.967Z,156237.41
2023-05-12T13:04:23.534Z,155595.84
2023-05-12T13:06:51.512Z,155977.50
2023-05-12T13:09:20.191Z,155978.81
2023-05-12T13:11:48.379Z,155810.91
2023-05-12T13:14:17.845Z,156075.94
2023-05-12T13:16:46.425Z,155892.25
2023-05-12T13:19:18.861Z,155572.28
2023-05-12T13:21:46.703Z,155420.25
2023-05-12T13:24:15.691Z,155547.38
2023-05-12T13:26:43.766Z,155454.38
2023-05-12T13:29:11.824Z,155331.19
2023-05-12T13:31:42.668Z,155396.69
2023-05-12T13:34:10.802Z,155323.34
2023-05-12T13:36:38.889Z,155466.19
2023-05-12T13:39:07.092Z,155650.94
2023-05-12T13:41:34.983Z,155319.41
2023-05-12T13:44:03.154Z,155171.44
2023-05-12T13:46:33.162Z,154964.63
2023-05-12T13:49:03.465Z,154849.47
2023-05-12T13:52:01.186Z,155176.66
2023-05-12T13:54:29.199Z,155661.44
2023-05-12T13:57:04.114Z,156165.19
2023-05-12T13:59:38.100Z,156364.78
2023-05-12T14:02:30.273Z,156329.31
2023-05-12T14:05:22.519Z,155576.22
2023-05-12T14:07:58.291Z,155273.59
2023-05-12T14:10:26.236Z,155044.41
2023-05-12T14:12:54.269Z,154935.81
2023-05-12T14:15:36.123Z,154948.91
2023-05-12T14:18:09.407Z,154990.78
2023-05-12T14:20:39.402Z,154967.25
2023-05-12T14:23:07.898Z,154918.81
2023-05-12T14:25:35.866Z,154947.59
2023-05-12T14:28:04.330Z,155020.91
2023-05-12T14:30:34.986Z,154998.63
2023-05-12T14:33:03.076Z,155028.69
2023-05-12T14:35:31.372Z,155003.88
2023-05-12T14:38:00.847Z,155006.50
2023-05-12T14:40:28.946Z,155019.59
2023-05-12T14:42:57.136Z,155039.19
2023-05-12T14:45:26.727Z,155018.28
2023-05-12T14:47:54.936Z,154947.59
2023-05-12T14:50:23.367Z,154948.91
2023-05-12T14:52:51.528Z,155140.00
2023-05-12T14:55:21.318Z,155077.22
2023-05-12T14:57:50.989Z,155141.28
2023-05-12T15:00:21.275Z,155210.69
2023-05-12T15:02:49.555Z,155145.22
2023-05-12T15:05:17.923Z,155453.06
2023-05-12T15:07:45.795Z,155619.50
2023-05-12T15:10:13.714Z,155999.84
2023-05-12T15:12:43.150Z,155890.91
2023-05-12T15:15:14.792Z,155609.03
2023-05-12T15:17:47.754Z,155523.81
2023-05-12T15:20:21.619Z,155332.50
2023-05-12T15:22:50.868Z,155598.47
2023-05-12T15:25:22.253Z,155512.03
2023-05-12T15:27:55.306Z,155808.28
2023-05-12T15:30:23.326Z,155820.09
2023-05-12T15:32:51.272Z,155967.06
2023-05-12T15:35:19.624Z,156192.78
2023-05-12T15:37:47.863Z,156480.34
2023-05-12T15:40:16.840Z,156228.19
2023-05-12T15:42:44.733Z,156182.28
2023-05-12T15:45:14.268Z,156204.56
2023-05-12T15:47:42.254Z,156435.72
2023-05-12T15:50:11.517Z,156595.97
2023-05-12T15:52:39.483Z,156451.47
2023-05-12T15:55:07.828Z,156222.94
2023-05-12T15:57:35.896Z,156106.16
2023-05-12T16:00:03.995Z,155609.03
2023-05-12T16:02:33.549Z,155470.09
2023-05-12T16:05:01.507Z,155108.59
2023-05-12T16:07:31.055Z,154972.44
2023-05-12T16:09:59.622Z,154873.03
2023-05-12T16:12:27.621Z,154893.97
2023-05-12T16:14:55.428Z,154772.28
2023-05-12T16:17:23.350Z,154624.53
2023-05-12T16:19:53.555Z,154594.44
2023-05-12T16:22:21.489Z,154582.69
2023-05-12T16:24:49.604Z,154601.00
2023-05-12T16:27:17.421Z,154602.28
2023-05-12T16:29:47.324Z,154930.59
2023-05-12T16:32:15.358Z,155348.25
2023-05-12T16:34:43.362Z,155557.88
2023-05-12T16:37:12.702Z,155614.25
2023-05-12T16:39:43.806Z,155648.31
2023-05-12T16:42:11.790Z,155584.06
2023-05-12T16:44:39.613Z,155779.47
2023-05-12T16:47:07.913Z,155366.53
2023-05-12T16:49:35.791Z,155747.97
2023-05-12T16:52:03.718Z,155519.88
2023-05-12T16:54:33.526Z,155577.53
2023-05-12T16:57:03.190Z,155585.34
2023-05-12T16:59:32.539Z,155574.91
2023-05-12T17:02:01.404Z,155430.78
2023-05-12T17:04:29.410Z,155477.94
2023-05-12T17:06:57.914Z,155325.97
2023-05-12T17:09:25.930Z,155147.84
2023-05-12T17:11:56.994Z,155137.38
2023-05-12T17:14:24.952Z,155187.16
2023-05-12T17:16:59.505Z,155121.69
2023-05-12T17:19:30.955Z,155153.09
2023-05-12T17:21:59.021Z,155196.28
2023-05-12T17:24:28.081Z,155335.13
2023-05-12T17:26:57.693Z,155252.63
2023-05-12T17:29:25.988Z,155373.09
2023-05-12T17:31:54.480Z,155263.09
2023-05-12T17:34:25.458Z,154803.66
2023-05-12T17:36:53.257Z,155071.97
2023-05-12T17:39:21.566Z,155057.50
2023-05-12T17:41:50.538Z,154865.13
2023-05-12T17:44:23.679Z,154799.78
2023-05-12T17:46:51.596Z,154870.41
2023-05-12T17:49:32.986Z,154802.34
2023-05-12T17:52:02.238Z,154870.41
2023-05-12T17:54:30.118Z,154901.84
2023-05-12T17:57:00.262Z,154669.00
2023-05-12T17:59:31.093Z,154649.34
2023-05-12T18:01:59.155Z,154684.72
2023-05-12T18:04:30.231Z,154765.75
2023-05-12T18:06:59.467Z,154841.63
2023-05-12T18:09:28.614Z,154637.56
2023-05-12T18:11:56.654Z,154747.44
2023-05-12T18:14:24.520Z,154734.41
2023-05-12T18:16:54.983Z,154672.94
2023-05-12T18:19:23.367Z,154718.69
2023-05-12T18:21:51.981Z,154763.13
2023-05-12T18:24:19.951Z,154710.84
2023-05-12T18:26:48.254Z,154548.72
2023-05-12T18:29:16.273Z,154612.75
2023-05-12T18:31:44.300Z,154493.84
2023-05-12T18:34:13.759Z,154393.19
2023-05-12T18:36:41.710Z,154320.03
2023-05-12T18:39:16.773Z,154226.00
2023-05-12T18:41:50.221Z,154107.19
2023-05-12T18:44:19.156Z,154021.00
2023-05-12T18:46:47.062Z,153959.72
2023-05-12T18:49:16.614Z,153886.63
2023-05-12T18:52:12.255Z,153829.25
2023-05-12T18:54:56.590Z,153769.22
2023-05-12T18:57:31.536Z,153719.66
2023-05-12T19:00:06.923Z,153680.56
2023-05-12T19:02:47.845Z,153640.13
2023-05-12T19:05:17.567Z,153586.69
2023-05-12T19:07:46.572Z,153515.00
2023-05-12T19:10:14.410Z,153567.16
2023-05-12T19:12:42.290Z,153554.13
2023-05-12T19:15:10.955Z,153525.38
2023-05-12T19:17:38.948Z,153458.97
2023-05-12T19:20:08.588Z,153418.56
2023-05-12T19:22:38.191Z,153386.03
2023-05-12T19:25:08.107Z,153335.22
2023-05-12T19:27:36.546Z,153316.97
2023-05-12T19:30:05.425Z,153262.25
2023-05-12T19:32:34.784Z,153224.50
2023-05-12T19:35:04.906Z,153236.22
2023-05-12T19:37:33.407Z,153207.56
2023-05-12T19:40:02.984Z,153155.50
2023-05-12T19:42:30.919Z,153162.00
2023-05-12T19:45:00.798Z,153133.34
2023-05-12T19:47:29.969Z,153082.59
2023-05-12T19:49:58.918Z,153080.00
2023-05-12T19:52:30.665Z,153060.50
2023-05-12T19:54:58.839Z,153093.03
2023-05-12T19:57:29.382Z,153103.44
2023-05-12T19:59:59.757Z,153052.69
2023-05-12T20:02:30.830Z,153014.97
2023-05-12T20:05:01.039Z,153017.56
2023-05-12T20:07:28.973Z,152992.78
2023-05-12T20:09:57.051Z,153009.72
2023-05-12T20:12:25.167Z,152936.84
2023-05-12T20:14:54.492Z,152923.84
2023-05-12T20:17:22.833Z,152913.41
2023-05-12T20:19:50.939Z,152887.44
2023-05-12T20:22:18.738Z,152778.22
2023-05-12T20:24:46.851Z,152812.00
2023-05-12T20:27:14.700Z,152854.88
2023-05-12T20:29:42.537Z,152814.59
2023-05-12T20:32:14.212Z,152843.22
2023-05-12T20:34:42.362Z,152865.31
2023-05-12T20:37:10.251Z,152802.88
2023-05-12T20:39:38.761Z,152763.88
2023-05-12T20:42:12.151Z,152705.34
2023-05-12T20:44:40.010Z,152650.75
2023-05-12T20:47:10.898Z,152654.66
2023-05-12T20:49:40.305Z,152574.13
2023-05-12T20:52:09.231Z,152523.41
2023-05-12T20:54:37.246Z,152481.84
2023-05-12T20:57:05.535Z,152489.63
2023-05-12T20:59:34.525Z,152426.00
2023-05-12T21:02:02.493Z,152414.28
2023-05-12T21:04:30.813Z,152363.59
2023-05-12T21:07:00.226Z,152290.94
2023-05-12T21:09:28.591Z,152268.84
2023-05-12T21:11:56.573Z,152248.06
2023-05-12T21:14:24.432Z,152198.72
2023-05-12T21:16:52.370Z,152206.53
2023-05-12T21:19:20.929Z,152211.72
2023-05-12T21:21:49.387Z,152209.13
2023-05-12T21:24:21.084Z,152197.44
2023-05-12T21:26:49.622Z,152203.94
2023-05-12T21:29:17.695Z,152222.13
2023-05-12T21:31:47.459Z,152203.94
2023-05-12T21:34:15.778Z,152187.09
2023-05-12T21:36:43.586Z,152166.31
2023-05-12T21:39:11.611Z,152124.78
2023-05-12T21:41:40.946Z,152175.41
2023-05-12T21:44:11.100Z,152136.44
2023-05-12T21:46:39.572Z,152122.19
2023-05-12T21:49:07.632Z,152114.41
2023-05-12T21:51:35.609Z,152074.19
2023-05-12T21:54:03.951Z,152043.03
2023-05-12T21:56:32.890Z,152006.69
2023-05-12T21:59:02.622Z,152048.22
2023-05-12T22:01:30.747Z,151984.63
2023-05-12T22:03:59.631Z,151975.53
2023-05-12T22:06:27.677Z,152023.53
2023-05-12T22:08:55.771Z,152052.13
2023-05-12T22:11:24.281Z,152032.59
2023-05-12T22:13:52.274Z,152035.19
2023-05-12T22:16:25.838Z,152017.06
2023-05-12T22:18:59.400Z,152079.34
2023-05-12T22:21:27.370Z,152035.19
2023-05-12T22:23:57.886Z,151985.91
2023-05-12T22:26:25.899Z,151995.00
2023-05-12T22:28:54.468Z,151926.25
2023-05-12T22:31:23.929Z,151934.03
2023-05-12T22:33:52.083Z,151922.38
2023-05-12T22:36:20.320Z,151956.13
2023-05-12T22:38:48.176Z,151949.63
2023-05-12T22:41:16.720Z,151918.47
2023-05-12T22:43:44.809Z,151905.53
2023-05-12T22:46:12.758Z,151900.34
2023-05-12T22:48:42.525Z,151917.19
2023-05-12T22:51:11.144Z,151908.13
2023-05-12T22:53:41.391Z,151897.75
2023-05-12T22:56:09.564Z,151909.44
2023-05-12T22:58:38.816Z,151919.78
2023-05-12T23:01:07.098Z,151936.63
2023-05-12T23:03:35.229Z,151934.03
2023-05-12T23:06:04.418Z,151886.06
2023-05-12T23:08:32.385Z,151879.59
2023-05-12T23:11:01.651Z,151884.78
2023-05-12T23:13:30.850Z,151882.19
2023-05-12T23:15:58.805Z,151856.22
2023-05-12T23:18:27.570Z,151887.38
2023-05-12T23:20:55.569Z,151834.22
2023-05-12T23:23:24.904Z,151882.19
2023-05-12T23:25:52.738Z,151844.59
2023-05-12T23:28:20.760Z,151848.50
2023-05-12T23:30:48.657Z,151842.00
2023-05-12T23:33:22.431Z,151838.13
2023-05-12T23:35:58.138Z,151821.25
2023-05-12T23:38:41.612Z,151813.47
2023-05-12T23:41:15.774Z,151792.75
2023-05-12T23:43:53.628Z,151838.13
2023-05-12T23:46:24.724Z,151813.47
2023-05-12T23:49:08.317Z,151740.91
2023-05-12T23:51:55.627Z,151733.13
2023-05-12T23:54:28.850Z,151686.50
2023-05-12T23:56:56.893Z,151734.44
2023-05-12T23:59:24.955Z,151689.09
